This is the latest recevied weather packets stored in our database for station/object F4ELU-13. If no packets are shown the sender has not sent any weather packets the latest 10 day(s).
| Time | Temp. | Humidity | Pressure | Rain* | Wind** | Luminosity | Snow |
|---|---|---|---|---|---|---|---|
| 1777518544 | 10.56° C | 75% | 1016.4 hPa | 0 mm | - | - | - |
| 1777518003 | 10.56° C | 74% | 1016.2 hPa | 0 mm | - | - | - |
| 1777517643 | 10.56° C | 75% | 1016.2 hPa | 0 mm | - | - | - |
| 1777517103 | 11.11° C | 75% | 1016.2 hPa | 0 mm | - | - | - |
| 1777516563 | 11.11° C | 74% | 1016.2 hPa | 0 mm | - | - | - |
| 1777516023 | 11.67° C | 74% | 1016 hPa | 0 mm | - | - | - |
| 1777515483 | 11.11° C | 75% | 1016 hPa | 0 mm | - | - | - |
| 1777514944 | 10.56° C | 78% | 1016.1 hPa | 0 mm | - | - | - |
| 1777514403 | 10° C | 80% | 1016.1 hPa | 0 mm | - | - | - |
| 1777514043 | 10° C | 81% | 1016 hPa | 0 mm | - | - | - |
| 1777513503 | 9.44° C | 83% | 1016.1 hPa | 0 mm | - | - | - |
| 1777512963 | 10° C | 81% | 1016 hPa | 0 mm | - | - | - |
| 1777512423 | 10° C | 82% | 1016 hPa | 0 mm | - | - | - |
| 1777511883 | 10.56° C | 80% | 1015.9 hPa | 0 mm | - | - | - |
| 1777511343 | 11.11° C | 79% | 1016 hPa | 0 mm | - | - | - |
| 1777510803 | 11.11° C | 78% | 1016 hPa | 0 mm | - | - | - |
| 1777510443 | 11.67° C | 78% | 1016.1 hPa | 0 mm | - | - | - |
| 1777509903 | 12.22° C | 76% | 1016 hPa | 0 mm | - | - | - |
| 1777509363 | 11.67° C | 79% | 1015.9 hPa | 0 mm | - | - | - |
| 1777508823 | 11.67° C | 82% | 1016 hPa | 0 mm | - | - | - |
| 1777508283 | 12.22° C | 79% | 1016 hPa | 0 mm | - | - | - |
| 1777507744 | 12.22° C | 79% | 1015.8 hPa | 0 mm | - | - | - |
| 1777507203 | 11.67° C | 81% | 1015.9 hPa | 0 mm | - | - | - |
| 1777506843 | 12.22° C | 81% | 1016 hPa | 0 mm | - | - | - |
| 1777506303 | 12.78° C | 77% | 1015.9 hPa | 0 mm | - | - | - |
* Rain latest hour (hover to see other rain measurements)
** Current wind speed in m/s (hover to see current wind gust speed)